Time;durP1;ratioP1;P1;durP2;ratioP2;P2;SDS_P1;SDS_P2;PMS_P1;PMS_P2;Temp;Humidity;BMP_temperature;BMP_pressure;BME280_temperature;BME280_humidity;BME280_pressure;Samples;Min_cycle;Max_cycle;Signal;HPM_P1;HPM_P2
2023/10/27 03:05:14;;;;;;;12.98;6.40;;;;;;;10.35;100.00;98909.75;5171882;27;20351;-73
2023/10/27 03:07:39;;;;;;;17.08;7.43;;;;;;;10.34;100.00;98908.13;5172775;27;20086;-73
2023/10/27 03:10:06;;;;;;;14.82;6.95;;;;;;;10.34;100.00;98905.44;5172057;27;20111;-72
2023/10/27 03:12:31;;;;;;;17.83;6.45;;;;;;;10.37;100.00;98910.28;5172211;27;20023;-73
2023/10/27 03:14:57;;;;;;;17.75;7.20;;;;;;;10.37;100.00;98910.28;5172425;27;20027;-71
2023/10/27 03:17:22;;;;;;;14.80;6.30;;;;;;;10.39;100.00;98910.03;5172051;27;20018;-70
2023/10/27 03:19:48;;;;;;;16.08;6.57;;;;;;;10.39;100.00;98902.72;5152479;27;20400;-68
2023/10/27 03:22:14;;;;;;;14.10;6.47;;;;;;;10.41;100.00;98905.94;5151219;27;20030;-70
2023/10/27 03:24:39;;;;;;;14.88;6.13;;;;;;;10.43;100.00;98903.81;5151346;27;20025;-72
2023/10/27 03:27:05;;;;;;;10.20;5.70;;;;;;;10.46;100.00;98903.25;5151209;27;20023;-71
2023/10/27 03:29:30;;;;;;;15.60;5.85;;;;;;;10.50;100.00;98894.59;5151002;27;20019;-68
2023/10/27 03:31:55;;;;;;;13.05;5.63;;;;;;;10.52;100.00;98908.66;5151045;27;20019;-71
2023/10/27 03:34:20;;;;;;;12.38;5.22;;;;;;;10.52;100.00;98908.66;5151289;27;20026;-72
2023/10/27 03:36:46;;;;;;;19.05;8.63;;;;;;;10.38;100.00;98894.88;5151225;27;20046;-68
2023/10/27 03:39:12;;;;;;;15.82;6.15;;;;;;;10.51;100.00;98896.19;5149905;27;20030;-68
2023/10/27 03:41:38;;;;;;;11.57;5.00;;;;;;;10.51;100.00;98896.19;5151125;27;20079;-69
2023/10/27 03:44:03;;;;;;;14.60;5.60;;;;;;;10.54;100.00;98898.38;5149488;27;20019;-69
2023/10/27 03:46:29;;;;;;;23.55;8.80;;;;;;;10.43;100.00;98898.41;5151045;27;20034;-70
2023/10/27 03:48:55;;;;;;;13.70;5.50;;;;;;;10.54;100.00;98893.78;5150579;27;20029;-69
2023/10/27 03:51:25;;;;;;;13.63;5.40;;;;;;;10.57;100.00;98904.06;5150677;27;20362;-70
2023/10/27 03:53:53;;;;;;;13.70;7.40;;;;;;;10.46;100.00;98886.19;5150655;27;20037;-72
2023/10/27 03:56:18;;;;;;;9.75;5.47;;;;;;;10.56;100.00;98890.81;5149278;27;20114;-71
2023/10/27 03:58:43;;;;;;;12.40;5.18;;;;;;;10.57;100.00;98895.13;5149586;27;20019;-69
2023/10/27 04:01:09;;;;;;;9.23;5.45;;;;;;;10.60;100.00;98897.28;5142292;27;20093;-70
2023/10/27 04:03:34;;;;;;;11.02;5.35;;;;;;;10.60;100.00;98894.59;5129668;27;20055;-70
2023/10/27 04:06:00;;;;;;;11.43;4.97;;;;;;;10.59;100.00;98896.47;5129783;27;20023;-70
2023/10/27 04:08:25;;;;;;;12.27;5.45;;;;;;;10.60;100.00;98891.88;5128515;28;20458;-71
2023/10/27 04:10:51;;;;;;;14.90;5.10;;;;;;;10.61;100.00;98893.50;5145824;27;20024;-69
2023/10/27 04:13:16;;;;;;;9.32;4.65;;;;;;;10.61;100.00;98888.91;5129545;27;20015;-70
2023/10/27 04:15:44;;;;;;;10.70;5.35;;;;;;;10.61;100.00;98888.91;5101081;28;20036;-72
2023/10/27 04:18:10;;;;;;;12.02;5.10;;;;;;;10.61;100.00;98885.38;5091021;28;20027;-72
2023/10/27 04:20:35;;;;;;;13.20;4.70;;;;;;;10.61;100.00;98897.03;5095880;28;20028;-72
2023/10/27 04:23:00;;;;;;;14.73;7.40;;;;;;;10.44;100.00;98894.59;5094865;28;20466;-73
2023/10/27 04:25:27;;;;;;;13.32;6.80;;;;;;;10.39;100.00;98896.50;5095508;28;20048;-71
2023/10/27 04:27:53;;;;;;;13.38;4.90;;;;;;;10.56;100.00;98897.00;5128316;27;20076;-73
2023/10/27 04:30:18;;;;;;;10.77;4.95;;;;;;;10.57;100.00;98901.34;5095189;28;20024;-73
2023/10/27 04:32:45;;;;;;;9.50;4.85;;;;;;;10.57;100.00;98901.34;5095374;28;20447;-71
2023/10/27 04:35:12;;;;;;;14.68;5.40;;;;;;;10.59;100.00;98891.06;5127286;27;20024;-73
2023/10/27 04:37:38;;;;;;;8.45;4.10;;;;;;;10.59;100.00;98899.16;5093961;28;20031;-72
2023/10/27 04:40:04;;;;;;;13.45;6.40;;;;;;;10.42;100.00;98891.34;5095057;28;20020;-73
2023/10/27 04:42:31;;;;;;;14.52;7.35;;;;;;;10.49;100.00;98892.97;5095194;28;20454;-78
2023/10/27 04:44:56;;;;;;;11.43;4.40;;;;;;;10.58;100.00;98894.88;5093297;28;20028;-74
2023/10/27 04:47:21;;;;;;;12.88;4.20;;;;;;;10.60;100.00;98895.38;5093764;28;20027;-70
2023/10/27 04:49:47;;;;;;;13.77;7.10;;;;;;;10.46;100.00;98887.03;5093743;28;20024;-73
2023/10/27 04:52:12;;;;;;;13.98;6.85;;;;;;;10.44;100.00;98891.88;5093482;28;20116;-73
2023/10/27 04:54:38;;;;;;;19.33;7.43;;;;;;;10.42;100.00;98890.56;5094461;28;20028;-73
2023/10/27 04:57:03;;;;;;;16.90;5.05;;;;;;;10.56;100.00;98891.59;5093426;28;20112;-73
2023/10/27 04:59:30;;;;;;;13.50;4.60;;;;;;;10.57;100.00;98887.81;5094874;28;20048;-73
2023/10/27 05:01:55;;;;;;;8.27;4.45;;;;;;;10.59;100.00;98891.06;5101328;28;20100;-71
2023/10/27 05:04:21;;;;;;;13.57;4.63;;;;;;;10.59;100.00;98885.66;5130271;27;20487;-71
2023/10/27 05:06:46;;;;;;;13.00;4.85;;;;;;;10.60;100.00;98881.06;5114817;28;20028;-71
2023/10/27 05:09:12;;;;;;;11.63;4.60;;;;;;;10.60;100.00;98883.78;5113435;28;20058;-73
2023/10/27 05:11:39;;;;;;;10.90;4.38;;;;;;;10.60;100.00;98884.56;5115039;28;20065;-72
2023/10/27 05:14:05;;;;;;;11.18;5.28;;;;;;;10.61;100.00;98879.97;5110321;28;20421;-73
2023/10/27 05:16:30;;;;;;;15.48;7.07;;;;;;;10.44;100.00;98872.97;5093226;28;20118;-73
2023/10/27 05:18:56;;;;;;;15.60;6.65;;;;;;;10.45;100.00;98880.00;5094426;28;20024;-72
2023/10/27 05:21:26;;;;;;;8.90;4.22;;;;;;;10.57;100.00;98877.00;5094215;28;20035;-73
2023/10/27 05:23:52;;;;;;;10.75;4.70;;;;;;;10.60;100.00;98873.75;5094311;28;20343;-73
2023/10/27 05:26:18;;;;;;;6.82;4.15;;;;;;;10.59;100.00;98874.03;5093619;28;20032;-73
2023/10/27 05:28:43;;;;;;;14.75;7.50;;;;;;;10.41;100.00;98873.50;5093553;28;20028;-73
2023/10/27 05:31:08;;;;;;;16.30;7.35;;;;;;;10.39;100.00;98875.69;5093692;28;20059;-73
2023/10/27 05:33:34;;;;;;;11.82;5.32;;;;;;;10.55;100.00;98873.78;5093201;28;20032;-72
2023/10/27 05:35:59;;;;;;;8.30;4.88;;;;;;;10.56;100.00;98869.16;5093957;28;20070;-73
2023/10/27 05:38:24;;;;;;;11.63;4.90;;;;;;;10.57;100.00;98870.78;5093854;28;20032;-74
2023/10/27 05:40:50;;;;;;;14.18;8.07;;;;;;;10.39;100.00;98866.75;5094050;28;20016;-74
2023/10/27 05:43:17;;;;;;;12.15;5.47;;;;;;;10.52;100.00;98868.09;5093987;28;20024;-73
2023/10/27 05:45:42;;;;;;;8.05;5.07;;;;;;;10.54;100.00;98865.94;5094346;28;20092;-72
2023/10/27 05:48:08;;;;;;;11.05;5.55;;;;;;;10.56;100.00;98863.75;5093510;28;20024;-72
2023/10/27 05:50:33;;;;;;;10.13;7.20;;;;;;;10.42;100.00;98869.72;5092243;28;20172;-72
2023/10/27 05:52:58;;;;;;;8.65;5.03;;;;;;;10.55;100.00;98867.53;5093505;28;20023;-74
2023/10/27 05:55:25;;;;;;;8.48;5.25;;;;;;;10.56;100.00;98863.75;5092981;28;20024;-72
2023/10/27 05:57:50;;;;;;;9.73;5.75;;;;;;;10.56;100.00;98871.88;5093706;28;20027;-74
2023/10/27 06:00:16;;;;;;;13.13;5.55;;;;;;;10.59;100.00;98874.03;5093198;28;20136;-72
2023/10/27 06:02:41;;;;;;;7.97;5.50;;;;;;;10.59;100.00;98871.31;5107932;27;20130;-71
2023/10/27 06:05:07;;;;;;;9.55;5.25;;;;;;;10.60;100.00;98872.94;5113133;28;20068;-72
2023/10/27 06:07:32;;;;;;;9.88;5.30;;;;;;;10.59;100.00;98877.53;5112122;28;20028;-72
2023/10/27 06:09:58;;;;;;;7.93;5.32;;;;;;;10.58;100.00;98867.00;5113765;28;20031;-72
2023/10/27 06:12:23;;;;;;;7.95;5.30;;;;;;;10.57;100.00;98873.50;5112165;28;20023;-74
2023/10/27 06:14:48;;;;;;;9.30;4.78;;;;;;;10.57;100.00;98879.72;5094332;28;20028;-74
2023/10/27 06:17:14;;;;;;;8.13;4.88;;;;;;;10.56;100.00;98877.28;5093154;28;20024;-72
2023/10/27 06:19:39;;;;;;;6.32;4.43;;;;;;;10.57;100.00;98878.91;5091526;28;20023;-72
2023/10/27 06:22:05;;;;;;;8.73;6.60;;;;;;;10.41;100.00;98878.91;5092707;28;20028;-72
2023/10/27 06:24:31;;;;;;;7.88;4.38;;;;;;;10.54;100.00;98882.16;5093110;28;20022;-73
2023/10/27 06:26:57;;;;;;;9.63;5.07;;;;;;;10.55;100.00;98878.34;5092906;28;20103;-74
2023/10/27 06:29:22;;;;;;;5.88;4.28;;;;;;;10.54;100.00;98882.97;5092668;28;20047;-73
2023/10/27 06:31:47;;;;;;;9.18;6.53;;;;;;;10.40;100.00;98882.72;5091803;28;20028;-74
2023/10/27 06:34:19;;;;;;;7.45;4.47;;;;;;;10.56;100.00;98882.69;5090566;28;20089;-76
2023/10/27 06:36:44;;;;;;;7.95;4.57;;;;;;;10.57;100.00;98897.84;5091743;28;20193;-73
2023/10/27 06:39:09;;;;;;;6.95;4.15;;;;;;;10.57;100.00;98887.81;5092777;28;20031;-74
2023/10/27 06:41:35;;;;;;;7.13;4.45;;;;;;;10.59;100.00;98890.25;5092395;28;20059;-72
2023/10/27 06:44:01;;;;;;;7.88;4.15;;;;;;;10.58;100.00;98892.16;5092583;28;20024;-73
2023/10/27 06:46:26;;;;;;;7.15;4.38;;;;;;;10.58;100.00;98897.56;5253049;23;20481;-73
2023/10/27 06:48:58;;;;;;;7.80;6.20;;;;;;;10.41;100.00;98895.13;5057082;28;20040;-78
2023/10/27 06:51:23;;;;;;;6.75;4.35;;;;;;;10.57;100.00;98897.84;5065453;28;20470;-72
2023/10/27 06:53:49;;;;;;;6.18;4.35;;;;;;;10.59;100.00;98901.06;5069342;28;20027;-77
2023/10/27 06:56:22;;;;;;;7.93;4.25;;;;;;;10.58;100.00;98897.56;5069483;28;20028;-72
2023/10/27 06:58:47;;;;;;;5.95;4.75;;;;;;;10.61;100.00;98901.59;5065229;28;20032;-73
2023/10/27 07:01:13;;;;;;;7.60;5.82;;;;;;;10.42;100.00;98906.78;5065374;28;20045;-73
2023/10/27 07:03:38;;;;;;;6.60;4.25;;;;;;;10.57;100.00;98904.06;5071899;28;20033;-72
2023/10/27 07:06:04;;;;;;;9.45;5.72;;;;;;;10.41;100.00;98905.94;5072671;28;20032;-70
2023/10/27 07:08:33;;;;;;;8.70;4.00;;;;;;;10.54;100.00;98901.91;5072374;28;20119;-73
2023/10/27 07:10:58;;;;;;;7.18;4.05;;;;;;;10.57;100.00;98911.38;5072090;28;20081;-72
2023/10/27 07:13:28;;;;;;;7.20;4.50;;;;;;;10.57;100.00;98911.38;5071883;28;20025;-73
2023/10/27 07:15:54;;;;;;;9.70;5.05;;;;;;;10.57;100.00;98919.47;5072352;28;20063;-72
2023/10/27 07:18:20;;;;;;;7.13;5.93;;;;;;;10.40;100.00;98915.16;5072254;28;20132;-73
2023/10/27 07:20:46;;;;;;;5.85;4.40;;;;;;;10.55;100.00;98927.88;5072537;28;20496;-73
2023/10/27 07:23:12;;;;;;;7.60;4.53;;;;;;;10.56;100.00;98924.06;5071509;28;20025;-72
2023/10/27 07:25:37;;;;;;;6.25;4.20;;;;;;;10.56;100.00;98923.25;5070952;28;20481;-73
2023/10/27 07:28:03;;;;;;;6.88;4.55;;;;;;;10.55;100.00;98932.44;5070708;28;20029;-73
2023/10/27 07:30:28;;;;;;;6.10;3.95;;;;;;;10.55;100.00;98927.03;5070747;28;20029;-73
2023/10/27 07:32:54;;;;;;;6.38;5.53;;;;;;;10.38;100.00;98927.31;5070637;28;20017;-72
2023/10/27 07:35:20;;;;;;;7.00;3.95;;;;;;;10.54;100.00;98931.66;5072493;28;20117;-72
2023/10/27 07:37:45;;;;;;;6.18;5.32;;;;;;;10.40;100.00;98936.78;5071637;28;20025;-73
2023/10/27 07:40:11;;;;;;;5.53;3.90;;;;;;;10.50;100.00;98937.88;5070837;28;20087;-73
2023/10/27 07:42:36;;;;;;;5.85;5.07;;;;;;;10.32;100.00;98936.50;5070275;28;20025;-73
2023/10/27 07:45:01;;;;;;;6.65;5.13;;;;;;;10.28;100.00;98933.50;5071612;28;20024;-73
2023/10/27 07:47:26;;;;;;;7.93;3.90;;;;;;;10.39;100.00;98945.97;5071851;28;20054;-73
2023/10/27 07:49:52;;;;;;;4.35;3.90;;;;;;;10.39;100.00;98945.97;5072010;28;20526;-73
2023/10/27 07:52:18;;;;;;;6.30;4.45;;;;;;;10.40;100.00;98946.78;5076077;28;20032;-73
2023/10/27 07:54:43;;;;;;;5.65;3.78;;;;;;;10.42;100.00;98944.63;5075246;28;20028;-73
2023/10/27 07:57:09;;;;;;;6.50;4.43;;;;;;;10.43;100.00;98952.47;5075677;28;20196;-73
2023/10/27 07:59:34;;;;;;;6.15;5.55;;;;;;;10.33;100.00;98946.22;5075139;28;20482;-73
2023/10/27 08:01:59;;;;;;;6.13;4.20;;;;;;;10.41;100.00;98951.91;5060482;28;20438;-72
2023/10/27 08:04:25;;;;;;;5.68;4.20;;;;;;;10.43;100.00;98960.59;5055461;28;20029;-72
2023/10/27 08:06:52;;;;;;;5.22;4.13;;;;;;;10.41;100.00;98954.63;5055257;28;20036;-73
2023/10/27 08:09:17;;;;;;;6.32;4.55;;;;;;;10.41;100.00;98965.44;5070600;28;20029;-73
2023/10/27 08:11:43;;;;;;;6.93;4.35;;;;;;;10.41;100.00;98965.44;5055228;28;20476;-73
2023/10/27 08:14:08;;;;;;;6.60;6.00;;;;;;;10.31;100.00;98951.06;5055405;28;20059;-73
2023/10/27 08:16:34;;;;;;;6.90;4.50;;;;;;;10.44;100.00;98945.97;5055120;28;20135;-73
2023/10/27 08:18:59;;;;;;;6.65;5.22;;;;;;;10.48;100.00;98956.25;5055208;28;20025;-72
2023/10/27 08:21:25;;;;;;;19.35;6.70;;;;;;;10.39;100.00;98964.91;5053996;28;20045;-72
2023/10/27 08:23:51;;;;;;;5.15;3.78;;;;;;;10.51;100.00;98969.22;5054935;28;20052;-73
2023/10/27 08:26:16;;;;;;;5.55;4.05;;;;;;;10.52;100.00;98965.44;5054937;28;20083;-74
2023/10/27 08:28:41;;;;;;;5.93;4.63;;;;;;;10.52;100.00;98971.66;5054526;28;20544;-72
2023/10/27 08:31:07;;;;;;;6.53;5.93;;;;;;;10.38;100.00;98974.09;5055053;28;20064;-72
2023/10/27 08:33:32;;;;;;;7.88;5.72;;;;;;;10.37;100.00;98983.31;5054816;28;20082;-72
2023/10/27 08:36:03;;;;;;;8.60;4.60;;;;;;;10.48;100.00;98980.56;5054803;28;20037;-72
2023/10/27 08:38:29;;;;;;;5.55;3.90;;;;;;;10.50;100.00;98981.13;5054443;28;20497;-71
2023/10/27 08:40:56;;;;;;;5.25;4.15;;;;;;;10.51;100.00;98975.47;5053568;28;20033;-72
2023/10/27 08:43:22;;;;;;;5.13;3.88;;;;;;;10.51;100.00;98986.28;5054807;28;20029;-73
2023/10/27 08:45:48;;;;;;;7.00;5.60;;;;;;;10.39;100.00;98986.53;5054151;28;20080;-72
2023/10/27 08:48:14;;;;;;;4.43;3.85;;;;;;;10.53;100.00;98989.50;5053605;28;20140;-72
2023/10/27 08:50:40;;;;;;;5.05;3.75;;;;;;;10.56;100.00;98988.16;5053078;28;20475;-72
2023/10/27 08:53:09;;;;;;;6.50;4.20;;;;;;;10.59;100.00;98987.63;5053358;28;20032;-72
2023/10/27 08:55:35;;;;;;;7.40;5.70;;;;;;;10.51;100.00;98986.28;5054355;28;20033;-72
2023/10/27 08:58:00;;;;;;;5.75;3.90;;;;;;;10.61;100.00;98985.44;5054572;28;20058;-72
2023/10/27 09:00:25;;;;;;;10.73;7.65;;;;;;;10.62;100.00;98987.88;5053365;28;20021;-72
2023/10/27 09:02:51;;;;;;;7.72;6.35;;;;;;;10.64;100.00;98984.91;5069026;28;20056;-72
2023/10/27 09:05:17;;;;;;;7.20;6.50;;;;;;;10.57;100.00;98977.06;5073109;28;20071;-71
2023/10/27 09:07:42;;;;;;;8.40;5.70;;;;;;;10.65;100.00;98986.53;5074152;28;20028;-72
2023/10/27 09:10:08;;;;;;;7.32;5.40;;;;;;;10.65;100.00;98989.25;5074630;28;20033;-72
2023/10/27 09:12:36;;;;;;;6.32;4.70;;;;;;;10.62;100.00;98998.69;5074355;28;20028;-72
2023/10/27 09:15:13;;;;;;;6.53;4.63;;;;;;;10.62;100.00;98997.91;5074213;28;20123;-72
2023/10/27 09:17:56;;;;;;;9.38;5.72;;;;;;;10.61;100.00;98996.28;5074003;28;20067;-72
2023/10/27 09:20:23;;;;;;;11.07;5.25;;;;;;;10.63;100.00;98988.72;5072889;28;20028;-71
2023/10/27 09:23:19;;;;;;;7.88;6.82;;;;;;;10.59;100.00;98993.03;5073798;28;20066;-71
2023/10/27 09:25:47;;;;;;;9.70;7.25;;;;;;;10.54;100.00;98990.34;5068051;28;20040;-72
2023/10/27 09:28:13;;;;;;;7.97;4.63;;;;;;;10.60;100.00;98994.66;5073918;28;20051;-72
2023/10/27 09:30:41;;;;;;;7.85;5.97;;;;;;;10.61;100.00;98991.69;5073398;28;20463;-72
2023/10/27 09:33:25;;;;;;;7.93;7.13;;;;;;;10.56;100.00;98978.16;5073844;28;20089;-72
2023/10/27 09:35:52;;;;;;;7.28;4.80;;;;;;;10.65;100.00;98981.13;5073541;28;20165;-73
2023/10/27 09:38:20;;;;;;;7.70;4.55;;;;;;;10.69;100.00;98993.03;5072103;28;20043;-73
2023/10/27 09:40:46;;;;;;;7.32;4.60;;;;;;;10.70;100.00;98989.22;5073528;28;20036;-73
2023/10/27 09:43:21;;;;;;;7.63;5.20;;;;;;;10.75;100.00;98994.66;5073684;28;20020;-73
2023/10/27 09:45:55;;;;;;;8.82;4.50;;;;;;;10.76;100.00;98995.44;5073081;28;20133;-72
2023/10/27 09:48:25;;;;;;;10.15;8.18;;;;;;;10.66;100.00;98993.56;5073600;28;20028;-72
2023/10/27 09:50:58;;;;;;;8.77;5.57;;;;;;;10.80;100.00;98993.84;5073207;28;20544;-72
2023/10/27 09:53:26;;;;;;;10.95;5.93;;;;;;;10.82;100.00;98999.78;5073751;28;20033;-72
2023/10/27 09:55:52;;;;;;;12.65;5.90;;;;;;;10.84;100.00;98999.50;5071846;28;20025;-73
2023/10/27 09:58:20;;;;;;;11.52;9.35;;;;;;;10.78;100.00;98990.59;5073386;28;20121;-73
2023/10/27 10:00:46;;;;;;;9.75;6.10;;;;;;;10.86;100.00;98984.63;5068336;28;20246;-71
2023/10/27 10:03:11;;;;;;;12.57;10.43;;;;;;;10.79;100.00;98989.50;5053299;28;20021;-71
2023/10/27 10:06:11;;;;;;;9.40;6.05;;;;;;;10.93;100.00;98993.28;5052733;28;20079;-71
2023/10/27 10:08:37;;;;;;;11.68;10.45;;;;;;;10.80;100.00;98997.34;5053018;28;20028;-72
2023/10/27 10:11:18;;;;;;;13.05;10.90;;;;;;;10.80;100.00;99000.06;5053223;28;20454;-71
2023/10/27 10:13:44;;;;;;;12.30;7.50;;;;;;;10.91;100.00;99010.88;5052397;28;20025;-72
2023/10/27 10:16:12;;;;;;;11.05;6.47;;;;;;;10.93;100.00;99024.94;5051579;28;20048;-73
2023/10/27 10:18:38;;;;;;;8.60;5.82;;;;;;;10.90;100.00;99020.91;5052832;28;20086;-71
2023/10/27 10:21:06;;;;;;;9.63;6.18;;;;;;;10.92;100.00;99015.22;5053239;28;20091;-72
2023/10/27 20:41:08;;;;;;;7.55;4.40;;;;;;;9.68;100.00;99262.66;5089514;27;20396;-71
2023/10/27 20:43:33;;;;;;;15.18;5.38;;;;;;;9.67;100.00;99253.72;5090437;28;20041;-71
2023/10/27 20:46:02;;;;;;;11.93;5.63;;;;;;;9.69;100.00;99267.81;5090026;28;20032;-71
2023/10/27 20:48:28;;;;;;;13.10;4.93;;;;;;;9.70;100.00;99257.81;5069891;28;20075;-69
2023/10/27 20:50:53;;;;;;;14.82;4.50;;;;;;;9.71;100.00;99272.97;5069706;28;20040;-68
2023/10/27 20:53:20;;;;;;;10.57;4.45;;;;;;;9.73;100.00;99263.50;5069769;28;20033;-69
2023/10/27 20:55:46;;;;;;;7.85;4.63;;;;;;;9.75;100.00;99261.38;5069670;28;20464;-70
2023/10/27 20:58:11;;;;;;;11.55;4.75;;;;;;;9.79;100.00;99258.16;5067837;28;20032;-69
2023/10/27 21:00:36;;;;;;;14.27;6.07;;;;;;;9.73;100.00;99263.50;5066970;28;20041;-68
2023/10/27 21:03:03;;;;;;;14.13;4.20;;;;;;;9.83;100.00;99267.34;5086106;28;20090;-69
2023/10/27 21:05:31;;;;;;;11.73;4.25;;;;;;;9.86;100.00;99266.84;5088622;28;20362;-69
